createdAt,value
2023-03-27T00:02:12.465Z,22.00
2023-03-27T00:04:46.232Z,19.60
2023-03-27T00:07:20.324Z,22.40
2023-03-27T00:09:54.269Z,20.60
2023-03-27T00:12:28.428Z,21.70
2023-03-27T00:15:02.131Z,19.80
2023-03-27T00:17:35.867Z,21.80
2023-03-27T00:20:11.051Z,17.70
2023-03-27T00:22:44.623Z,20.20
2023-03-27T00:25:18.689Z,22.00
2023-03-27T00:27:52.359Z,22.50
2023-03-27T00:30:26.685Z,20.20
2023-03-27T00:33:01.182Z,18.60
2023-03-27T00:35:35.253Z,22.40
2023-03-27T00:38:10.299Z,21.00
2023-03-27T00:40:45.008Z,22.50
2023-03-27T00:43:27.946Z,22.50
2023-03-27T00:46:06.966Z,20.60
2023-03-27T00:48:41.616Z,21.60
2023-03-27T00:51:16.243Z,23.80
2023-03-27T00:53:51.132Z,19.80
2023-03-27T00:56:26.523Z,21.80
2023-03-27T00:59:04.286Z,20.90
2023-03-27T01:01:37.908Z,19.90
2023-03-27T01:04:12.361Z,21.80
2023-03-27T01:06:46.158Z,21.40
2023-03-27T01:09:21.406Z,20.80
2023-03-27T01:12:12.928Z,23.40
2023-03-27T01:14:58.555Z,21.00
2023-03-27T01:17:45.685Z,24.20
2023-03-27T01:21:04.204Z,25.30
2023-03-27T01:23:59.502Z,21.60
2023-03-27T01:27:10.975Z,27.80
2023-03-27T01:29:59.941Z,23.40
2023-03-27T01:33:16.650Z,22.80
2023-03-27T01:36:10.913Z,23.50
2023-03-27T01:39:06.924Z,22.70
2023-03-27T01:41:49.655Z,24.10
2023-03-27T01:44:36.404Z,23.80
2023-03-27T01:47:34.645Z,21.40
2023-03-27T01:50:16.651Z,25.60
2023-03-27T01:52:55.700Z,24.30
2023-03-27T01:55:35.087Z,22.60
2023-03-27T01:58:14.338Z,22.40
2023-03-27T02:00:56.171Z,23.30
2023-03-27T02:03:35.465Z,24.50
2023-03-27T02:06:16.373Z,23.30
2023-03-27T02:08:56.948Z,24.20
2023-03-27T02:11:36.213Z,22.10
2023-03-27T02:14:14.012Z,20.90
2023-03-27T02:16:50.762Z,22.50
2023-03-27T02:19:30.501Z,24.30
2023-03-27T02:22:04.295Z,22.70
2023-03-27T02:24:49.329Z,25.00
2023-03-27T02:27:33.185Z,22.70
2023-03-27T02:30:16.534Z,21.60
2023-03-27T02:32:58.992Z,19.80
2023-03-27T02:35:45.796Z,19.80
2023-03-27T02:38:23.988Z,22.10
2023-03-27T02:41:07.543Z,22.80
2023-03-27T02:44:18.167Z,22.20
2023-03-27T02:47:07.104Z,23.80
2023-03-27T02:49:44.313Z,21.60
2023-03-27T02:52:22.252Z,23.20
2023-03-27T02:55:06.585Z,22.50
2023-03-27T02:57:51.938Z,26.70
2023-03-27T03:00:41.613Z,25.00
2023-03-27T03:03:28.182Z,23.40
2023-03-27T03:06:11.505Z,23.90
2023-03-27T03:08:46.965Z,25.10
2023-03-27T03:11:20.846Z,24.40
2023-03-27T03:13:54.279Z,28.20
2023-03-27T03:16:28.610Z,28.50
2023-03-27T03:19:02.309Z,34.40
2023-03-27T03:21:36.609Z,29.10
2023-03-27T03:24:10.911Z,28.90
2023-03-27T03:26:45.370Z,27.90
2023-03-27T03:29:19.829Z,26.10
2023-03-27T03:32:10.752Z,24.60
2023-03-27T03:34:46.906Z,24.40
2023-03-27T03:37:21.765Z,25.60
2023-03-27T03:39:55.245Z,22.50
2023-03-27T03:42:28.944Z,20.60
2023-03-27T03:45:02.850Z,22.40
2023-03-27T03:47:36.830Z,23.90
2023-03-27T03:50:12.238Z,23.10
2023-03-27T03:52:47.511Z,25.30
2023-03-27T03:55:21.265Z,21.90
2023-03-27T03:57:54.842Z,23.40
2023-03-27T04:00:34.841Z,24.70
2023-03-27T04:03:10.162Z,21.60
2023-03-27T04:05:44.353Z,22.90
2023-03-27T04:08:17.925Z,23.80
2023-03-27T04:10:57.746Z,24.10
2023-03-27T04:13:50.911Z,24.00
2023-03-27T04:16:38.438Z,24.40
2023-03-27T04:19:25.015Z,25.20
2023-03-27T04:22:05.409Z,24.50
2023-03-27T04:24:45.307Z,25.70
2023-03-27T04:27:21.551Z,23.80
2023-03-27T04:30:10.508Z,25.90
2023-03-27T04:33:19.095Z,23.70
2023-03-27T04:36:15.085Z,25.20
2023-03-27T04:38:59.160Z,27.80
2023-03-27T04:41:33.155Z,23.30
2023-03-27T04:44:07.421Z,25.10
2023-03-27T04:46:42.313Z,26.90
2023-03-27T04:49:19.384Z,26.90
2023-03-27T04:52:03.719Z,24.20
2023-03-27T04:54:37.351Z,27.90
2023-03-27T04:57:11.563Z,22.30
2023-03-27T04:59:45.620Z,26.20
2023-03-27T05:02:38.302Z,30.70
2023-03-27T05:05:21.335Z,24.80
2023-03-27T05:07:55.385Z,20.30
2023-03-27T05:10:30.902Z,21.90
2023-03-27T05:13:06.034Z,20.60
2023-03-27T05:15:39.645Z,21.80
2023-03-27T05:18:14.259Z,21.70
2023-03-27T05:20:50.280Z,21.10
2023-03-27T05:23:24.092Z,23.00
2023-03-27T05:25:59.881Z,21.00
2023-03-27T05:28:45.000Z,21.40
2023-03-27T05:31:19.489Z,22.60
2023-03-27T05:34:03.049Z,19.70
2023-03-27T05:36:39.533Z,22.70
2023-03-27T05:39:13.482Z,24.30
2023-03-27T05:41:49.278Z,21.20
2023-03-27T05:44:29.091Z,20.60
2023-03-27T05:47:03.271Z,22.30
2023-03-27T05:49:38.005Z,22.70
2023-03-27T05:54:48.531Z,22.70
2023-03-27T05:57:22.519Z,19.90
2023-03-27T05:59:57.347Z,24.20
2023-03-27T06:02:31.835Z,21.90
2023-03-27T06:05:13.697Z,19.50
2023-03-27T06:10:22.626Z,18.60
2023-03-27T06:13:24.452Z,18.00
2023-03-27T06:16:02.689Z,21.50
2023-03-27T06:19:00.132Z,17.80
2023-03-27T06:21:34.075Z,17.60
2023-03-27T06:24:09.750Z,20.30
2023-03-27T06:26:43.256Z,19.10
2023-03-27T06:29:17.119Z,15.00
2023-03-27T06:31:54.013Z,16.00
2023-03-27T06:34:35.397Z,15.10
2023-03-27T06:37:29.001Z,15.80
2023-03-27T06:40:04.147Z,14.00
2023-03-27T06:42:40.000Z,13.60
2023-03-27T06:45:33.926Z,14.90
2023-03-27T06:48:31.338Z,15.40
2023-03-27T06:51:09.284Z,16.90
2023-03-27T06:53:43.401Z,14.10
2023-03-27T06:56:17.122Z,14.70
2023-03-27T06:59:17.036Z,14.50
2023-03-27T07:01:52.961Z,15.10
2023-03-27T07:04:39.827Z,15.50
2023-03-27T07:07:27.541Z,11.90
2023-03-27T07:10:01.063Z,11.10
2023-03-27T07:12:37.567Z,13.90
2023-03-27T07:15:12.990Z,12.10
2023-03-27T07:17:54.146Z,10.40
2023-03-27T07:20:29.579Z,11.70
2023-03-27T07:23:05.900Z,8.90
2023-03-27T07:26:03.297Z,12.30
2023-03-27T07:29:11.337Z,13.30
2023-03-27T07:31:57.035Z,10.50
2023-03-27T07:34:59.475Z,16.80
2023-03-27T07:38:03.641Z,11.70
2023-03-27T07:40:44.406Z,13.20
2023-03-27T07:43:53.469Z,11.00
2023-03-27T07:46:28.396Z,10.50
2023-03-27T07:49:05.535Z,10.00
2023-03-27T07:51:40.480Z,9.50
2023-03-27T07:54:15.832Z,11.30
2023-03-27T07:56:54.550Z,9.80
2023-03-27T07:59:41.676Z,8.90
2023-03-27T08:02:21.053Z,9.40
2023-03-27T08:04:55.554Z,9.30
2023-03-27T08:07:30.650Z,9.60
2023-03-27T08:10:08.985Z,9.40
2023-03-27T08:12:53.402Z,8.60
2023-03-27T08:15:27.018Z,13.30
2023-03-27T08:18:02.343Z,12.70
2023-03-27T08:20:37.887Z,8.80
2023-03-27T08:23:11.813Z,9.60
2023-03-27T08:26:06.446Z,9.50
2023-03-27T08:28:46.087Z,9.30
2023-03-27T08:31:19.996Z,6.90
2023-03-27T08:33:53.944Z,8.60
2023-03-27T08:39:08.636Z,8.40
2023-03-27T08:41:55.379Z,8.90
2023-03-27T08:44:40.131Z,7.70
2023-03-27T08:47:28.666Z,8.90
2023-03-27T08:50:22.997Z,7.20
2023-03-27T08:53:00.014Z,6.30
2023-03-27T08:55:43.289Z,6.40
2023-03-27T08:58:33.356Z,7.20
2023-03-27T09:01:32.125Z,6.60
2023-03-27T09:04:19.499Z,6.70
2023-03-27T09:07:02.848Z,7.70
2023-03-27T09:09:53.425Z,6.10
2023-03-27T09:12:45.458Z,5.80
2023-03-27T09:15:26.436Z,8.20
2023-03-27T09:18:04.654Z,7.60
2023-03-27T09:20:45.235Z,5.50
2023-03-27T09:23:24.245Z,6.00
2023-03-27T09:26:20.465Z,7.00
2023-03-27T09:29:21.033Z,7.30
2023-03-27T09:32:00.651Z,6.70
2023-03-27T09:34:35.648Z,6.10
2023-03-27T09:37:15.051Z,6.20
2023-03-27T09:39:55.046Z,9.30
2023-03-27T09:42:39.045Z,6.60
2023-03-27T09:45:14.792Z,5.40
2023-03-27T09:48:04.657Z,5.70
2023-03-27T09:50:49.586Z,5.90
2023-03-27T09:53:33.622Z,8.00
2023-03-27T09:56:17.889Z,11.00
2023-03-27T09:58:56.389Z,7.30
2023-03-27T10:01:35.517Z,6.50
2023-03-27T10:04:19.926Z,5.50
2023-03-27T10:07:05.770Z,7.20
2023-03-27T10:10:14.418Z,9.30
2023-03-27T10:13:18.389Z,5.20
2023-03-27T10:16:02.701Z,5.40
2023-03-27T10:18:46.669Z,5.90
2023-03-27T10:21:33.628Z,5.40
2023-03-27T10:24:21.159Z,4.50
2023-03-27T10:27:25.234Z,8.00
2023-03-27T10:30:33.747Z,6.40
2023-03-27T10:33:38.100Z,6.40
2023-03-27T10:36:38.333Z,7.00
2023-03-27T10:39:17.804Z,5.90
2023-03-27T10:42:19.757Z,4.70
2023-03-27T10:44:57.916Z,4.80
2023-03-27T10:47:35.879Z,5.80
2023-03-27T10:50:20.374Z,5.80
2023-03-27T10:53:04.267Z,5.10
2023-03-27T10:55:56.477Z,6.70
2023-03-27T10:58:36.072Z,6.60
2023-03-27T11:01:18.798Z,7.90
2023-03-27T11:04:01.155Z,6.30
2023-03-27T11:06:42.259Z,5.50
2023-03-27T11:09:27.381Z,6.20
2023-03-27T11:12:14.859Z,8.70
2023-03-27T11:15:13.032Z,6.10
2023-03-27T11:17:51.691Z,5.70
2023-03-27T11:20:51.056Z,5.30
2023-03-27T11:23:54.801Z,3.70
2023-03-27T11:27:02.275Z,8.30
2023-03-27T11:29:42.096Z,7.80
2023-03-27T11:32:23.085Z,5.90
2023-03-27T11:35:08.610Z,6.50
2023-03-27T11:37:54.060Z,6.90
2023-03-27T11:40:32.395Z,5.10
2023-03-27T11:43:11.243Z,6.50
2023-03-27T11:45:54.628Z,5.30
2023-03-27T11:49:00.253Z,7.40
2023-03-27T11:51:46.313Z,4.70
2023-03-27T11:54:34.903Z,6.20
2023-03-27T11:57:23.479Z,4.60
2023-03-27T12:00:19.348Z,5.60
2023-03-27T12:03:22.557Z,7.80
2023-03-27T12:06:20.254Z,8.10
2023-03-27T12:09:19.207Z,5.40
2023-03-27T12:12:51.226Z,5.20
2023-03-27T12:16:04.674Z,10.20
2023-03-27T12:19:10.822Z,5.70
2023-03-27T12:22:07.212Z,6.20
2023-03-27T12:25:06.536Z,5.30
2023-03-27T12:28:23.146Z,6.30
2023-03-27T12:31:51.944Z,6.30
2023-03-27T12:34:50.653Z,5.10
2023-03-27T12:37:30.351Z,4.80
2023-03-27T12:40:15.156Z,7.80
2023-03-27T12:42:55.972Z,5.30
2023-03-27T12:45:30.024Z,3.20
2023-03-27T12:48:21.626Z,5.60
2023-03-27T12:51:01.071Z,4.90
2023-03-27T12:54:13.449Z,4.20
2023-03-27T12:56:53.726Z,6.50
2023-03-27T12:59:33.707Z,5.10
2023-03-27T13:02:39.902Z,3.60
2023-03-27T13:05:49.381Z,3.70
2023-03-27T13:09:02.719Z,5.90
2023-03-27T13:12:09.841Z,3.10
2023-03-27T13:15:12.634Z,5.50
2023-03-27T13:17:57.533Z,5.10
2023-03-27T13:20:41.290Z,6.10
2023-03-27T13:23:29.206Z,5.10
2023-03-27T13:26:22.029Z,6.00
2023-03-27T13:28:57.675Z,4.20
2023-03-27T13:32:28.788Z,4.60
2023-03-27T13:35:41.675Z,5.20
2023-03-27T13:38:15.684Z,5.40
2023-03-27T13:41:35.525Z,6.80
2023-03-27T13:44:12.761Z,5.60
2023-03-27T13:46:54.561Z,5.10
2023-03-27T13:49:47.391Z,5.00
2023-03-27T13:52:51.662Z,7.10
2023-03-27T13:55:52.400Z,6.80
2023-03-27T13:59:41.772Z,3.50
2023-03-27T14:02:46.049Z,8.00
2023-03-27T14:05:37.647Z,5.10
2023-03-27T14:08:31.756Z,4.80
2023-03-27T14:11:37.338Z,4.80
2023-03-27T14:14:37.440Z,5.10
2023-03-27T14:17:39.593Z,8.70
2023-03-27T14:20:23.524Z,4.20
2023-03-27T14:23:06.010Z,7.30
2023-03-27T14:26:02.241Z,4.60
2023-03-27T14:28:51.938Z,7.60
2023-03-27T14:31:36.108Z,3.50
2023-03-27T14:34:40.575Z,4.10
2023-03-27T14:38:00.506Z,4.70
2023-03-27T14:40:51.008Z,4.90
2023-03-27T14:43:31.016Z,11.70
2023-03-27T14:46:08.626Z,7.30
2023-03-27T14:48:45.493Z,5.00
2023-03-27T14:51:21.783Z,6.40
2023-03-27T14:54:04.667Z,5.30
2023-03-27T14:56:56.510Z,1.80
2023-03-27T14:59:43.233Z,3.00
2023-03-27T15:02:26.959Z,2.90
2023-03-27T15:05:09.951Z,2.30
2023-03-27T15:07:49.705Z,6.30
2023-03-27T15:10:56.364Z,3.30
2023-03-27T15:13:43.922Z,7.70
2023-03-27T15:16:26.443Z,3.30
2023-03-27T15:19:10.423Z,5.60
2023-03-27T15:21:57.820Z,3.70
2023-03-27T15:24:41.046Z,4.10
2023-03-27T15:27:23.847Z,4.90
2023-03-27T15:30:00.349Z,4.50
2023-03-27T15:32:42.739Z,2.40
2023-03-27T15:35:24.146Z,2.60
2023-03-27T15:37:58.498Z,5.20
2023-03-27T15:40:42.451Z,3.70
2023-03-27T15:43:32.795Z,2.70
2023-03-27T15:46:17.246Z,5.20
2023-03-27T15:48:58.026Z,5.10
2023-03-27T15:51:35.694Z,7.40
2023-03-27T15:54:32.226Z,4.80
2023-03-27T15:57:11.823Z,4.40
2023-03-27T15:59:52.211Z,4.80
2023-03-27T16:02:30.118Z,5.00
2023-03-27T16:05:08.246Z,2.90
2023-03-27T16:07:49.156Z,6.60
2023-03-27T16:10:34.933Z,7.30
2023-03-27T16:13:24.338Z,6.00
2023-03-27T16:16:04.212Z,4.40
2023-03-27T16:18:42.913Z,4.40
2023-03-27T16:23:50.032Z,6.60
2023-03-27T16:26:27.227Z,5.70
2023-03-27T16:29:04.022Z,4.40
2023-03-27T16:31:39.005Z,4.70
2023-03-27T16:34:22.423Z,3.30
2023-03-27T16:36:58.827Z,3.70
2023-03-27T16:39:34.049Z,5.70
2023-03-27T16:42:07.994Z,7.60
2023-03-27T16:44:42.937Z,6.00
2023-03-27T16:47:18.782Z,7.60
2023-03-27T16:50:10.241Z,5.20
2023-03-27T16:52:47.322Z,4.40
2023-03-27T16:55:25.239Z,4.40
2023-03-27T16:58:02.242Z,7.00
2023-03-27T17:00:37.514Z,4.90
2023-03-27T17:03:12.601Z,6.50
2023-03-27T17:05:46.903Z,5.80
2023-03-27T17:08:22.593Z,9.10
2023-03-27T17:10:57.642Z,6.40
2023-03-27T17:13:32.825Z,7.70
2023-03-27T17:16:09.784Z,7.80
2023-03-27T17:18:44.026Z,5.20
2023-03-27T17:21:18.504Z,6.80
2023-03-27T17:23:54.132Z,6.00
2023-03-27T17:26:32.594Z,6.80
2023-03-27T17:29:12.215Z,6.30
2023-03-27T17:31:48.193Z,4.90
2023-03-27T17:34:22.611Z,7.30
2023-03-27T17:36:58.022Z,6.90
2023-03-27T17:39:32.944Z,15.00
2023-03-27T17:42:08.794Z,14.00
2023-03-27T17:44:47.210Z,8.40
2023-03-27T17:47:23.518Z,10.70
2023-03-27T17:50:00.990Z,9.00
2023-03-27T17:52:39.379Z,6.40
2023-03-27T17:55:15.841Z,5.50
2023-03-27T17:58:07.860Z,8.00
2023-03-27T18:00:44.610Z,5.80
2023-03-27T18:03:25.282Z,7.50
2023-03-27T18:06:08.068Z,6.40
2023-03-27T18:08:48.274Z,6.40
2023-03-27T18:11:24.776Z,7.30
2023-03-27T18:13:59.194Z,7.50
2023-03-27T18:16:36.049Z,5.80
2023-03-27T18:19:13.288Z,9.90
2023-03-27T18:21:49.187Z,10.00
2023-03-27T18:24:25.803Z,10.40
2023-03-27T18:27:02.686Z,9.20
2023-03-27T18:29:41.441Z,4.60
2023-03-27T18:32:17.257Z,6.70
2023-03-27T18:34:54.336Z,6.70
2023-03-27T18:37:30.417Z,5.80
2023-03-27T18:40:12.268Z,4.90
2023-03-27T18:42:47.985Z,4.40
2023-03-27T18:45:25.514Z,7.00
2023-03-27T18:48:02.779Z,7.40
2023-03-27T18:50:42.625Z,4.50
2023-03-27T18:53:24.148Z,3.30
2023-03-27T18:56:03.443Z,6.30
2023-03-27T18:58:43.469Z,5.00
2023-03-27T19:01:20.992Z,14.80
2023-03-27T19:03:57.060Z,18.60
2023-03-27T19:06:35.903Z,9.70
2023-03-27T19:09:14.327Z,12.30
2023-03-27T19:11:53.296Z,9.10
2023-03-27T19:14:49.430Z,21.40
2023-03-27T19:17:44.347Z,12.00
2023-03-27T19:20:35.138Z,17.00
2023-03-27T19:23:42.918Z,10.20
2023-03-27T19:26:23.376Z,9.80
2023-03-27T19:29:00.601Z,7.60
2023-03-27T19:31:44.982Z,5.60
2023-03-27T19:34:29.896Z,5.80
2023-03-27T19:37:18.419Z,6.00
2023-03-27T19:39:56.309Z,7.10
2023-03-27T19:42:33.902Z,6.40
2023-03-27T19:45:14.919Z,3.70
2023-03-27T19:47:54.218Z,4.80
2023-03-27T19:50:29.648Z,4.50
2023-03-27T19:53:26.591Z,4.50
2023-03-27T19:56:04.244Z,5.80
2023-03-27T19:58:42.753Z,4.10
2023-03-27T20:01:20.906Z,5.00
2023-03-27T20:06:39.329Z,4.40
2023-03-27T20:09:16.304Z,6.70
2023-03-27T20:11:53.435Z,5.60
2023-03-27T20:14:31.501Z,6.80
2023-03-27T20:17:12.150Z,6.70
2023-03-27T20:19:56.155Z,7.30
2023-03-27T20:22:40.689Z,5.00
2023-03-27T20:25:18.762Z,7.70
2023-03-27T20:27:55.144Z,7.60
2023-03-27T20:30:37.071Z,6.30
2023-03-27T20:33:13.866Z,6.40
2023-03-27T20:35:52.183Z,6.80
2023-03-27T20:41:07.116Z,7.60
2023-03-27T20:43:45.239Z,6.80
2023-03-27T20:46:21.861Z,7.10
2023-03-27T20:48:56.615Z,6.40
2023-03-27T20:51:30.561Z,6.90
2023-03-27T20:54:06.356Z,7.60
2023-03-27T20:56:39.886Z,6.90
2023-03-27T20:59:14.903Z,7.00
2023-03-27T21:01:48.778Z,6.70
2023-03-27T21:04:24.751Z,8.50
2023-03-27T21:06:59.159Z,9.40
2023-03-27T21:09:32.776Z,7.80
2023-03-27T21:12:07.163Z,7.00
2023-03-27T21:14:41.087Z,8.70
2023-03-27T21:17:17.562Z,8.90
2023-03-27T21:19:51.486Z,9.60
2023-03-27T21:22:25.028Z,9.20
2023-03-27T21:24:59.133Z,8.20
2023-03-27T21:27:33.475Z,9.90
2023-03-27T21:30:10.079Z,9.50
2023-03-27T21:32:43.715Z,9.70
2023-03-27T21:35:17.363Z,6.20
2023-03-27T21:37:50.905Z,10.20
2023-03-27T21:40:25.264Z,8.30
2023-03-27T21:43:00.062Z,12.10
2023-03-27T21:45:34.242Z,9.80
2023-03-27T21:48:11.107Z,12.20
2023-03-27T21:50:45.588Z,9.90
2023-03-27T21:53:19.755Z,11.70
2023-03-27T21:55:53.193Z,11.40
2023-03-27T21:58:27.072Z,12.00
2023-03-27T22:01:01.316Z,14.50
2023-03-27T22:03:35.280Z,11.60
2023-03-27T22:06:13.378Z,9.50
2023-03-27T22:11:19.523Z,9.90
2023-03-27T22:13:53.511Z,11.00
2023-03-27T22:16:27.726Z,11.20
2023-03-27T22:19:01.768Z,10.40
2023-03-27T22:21:35.476Z,10.30
2023-03-27T22:24:09.939Z,12.60
2023-03-27T22:26:44.168Z,11.20
2023-03-27T22:29:18.036Z,12.70
2023-03-27T22:31:52.213Z,10.20
2023-03-27T22:34:27.006Z,10.20
2023-03-27T22:37:01.911Z,11.20
2023-03-27T22:39:35.958Z,13.90
2023-03-27T22:42:09.981Z,11.20
2023-03-27T22:44:43.968Z,11.10
2023-03-27T22:47:17.434Z,12.80
2023-03-27T22:49:50.918Z,11.40
2023-03-27T22:52:24.819Z,13.40
2023-03-27T22:54:58.400Z,11.00
2023-03-27T22:57:31.962Z,10.10
2023-03-27T23:00:07.191Z,9.40
2023-03-27T23:02:41.627Z,13.60
2023-03-27T23:05:15.944Z,14.10
2023-03-27T23:07:49.353Z,12.00
2023-03-27T23:10:23.224Z,11.70
2023-03-27T23:12:57.087Z,10.90
2023-03-27T23:15:30.650Z,14.10
2023-03-27T23:18:04.971Z,12.40
2023-03-27T23:20:40.974Z,11.80
2023-03-27T23:23:14.798Z,13.40
2023-03-27T23:25:48.264Z,14.10
2023-03-27T23:28:22.103Z,15.10
2023-03-27T23:31:00.516Z,12.70
2023-03-27T23:33:37.882Z,13.70
2023-03-27T23:36:14.462Z,14.00
2023-03-27T23:38:48.263Z,12.80
2023-03-27T23:41:22.687Z,13.90
2023-03-27T23:43:56.417Z,11.70
2023-03-27T23:46:30.056Z,12.80
2023-03-27T23:49:03.635Z,10.20
2023-03-27T23:51:37.134Z,10.70
2023-03-27T23:54:11.083Z,11.20
2023-03-27T23:56:45.321Z,12.40
2023-03-27T23:59:19.278Z,11.40
